createdAt,value
2023-03-21T00:01:16.288Z,10.70
2023-03-21T00:03:46.821Z,9.10
2023-03-21T00:06:15.705Z,11.10
2023-03-21T00:08:44.774Z,10.60
2023-03-21T00:11:13.710Z,14.00
2023-03-21T00:13:43.553Z,9.70
2023-03-21T00:16:17.996Z,11.40
2023-03-21T00:18:53.987Z,9.50
2023-03-21T00:24:17.006Z,12.00
2023-03-21T00:26:46.165Z,9.80
2023-03-21T00:29:15.074Z,11.90
2023-03-21T00:31:43.860Z,9.20
2023-03-21T00:36:46.648Z,11.70
2023-03-21T00:39:15.444Z,11.20
2023-03-21T00:41:44.204Z,9.90
2023-03-21T00:44:16.250Z,10.50
2023-03-21T00:47:00.848Z,10.70
2023-03-21T00:49:34.480Z,12.20
2023-03-21T00:52:15.188Z,9.60
2023-03-21T00:54:47.386Z,10.10
2023-03-21T00:57:16.845Z,11.10
2023-03-21T00:59:45.633Z,11.10
2023-03-21T01:02:22.757Z,10.60
2023-03-21T01:04:51.635Z,11.50
2023-03-21T01:07:20.880Z,12.20
2023-03-21T01:09:50.902Z,11.80
2023-03-21T01:12:19.600Z,10.80
2023-03-21T01:14:48.497Z,12.20
2023-03-21T01:17:17.321Z,13.50
2023-03-21T01:19:52.069Z,11.80
2023-03-21T01:22:21.337Z,13.20
2023-03-21T01:24:58.529Z,12.50
2023-03-21T01:27:29.230Z,11.30
2023-03-21T01:29:58.699Z,13.80
2023-03-21T01:32:28.474Z,12.60
2023-03-21T01:34:57.294Z,15.50
2023-03-21T01:37:26.642Z,12.60
2023-03-21T01:39:55.408Z,14.30
2023-03-21T01:42:24.113Z,12.50
2023-03-21T01:44:54.281Z,13.60
2023-03-21T01:47:23.108Z,15.20
2023-03-21T01:49:55.158Z,15.30
2023-03-21T01:52:36.525Z,11.20
2023-03-21T01:55:08.426Z,12.50
2023-03-21T01:57:54.926Z,11.30
2023-03-21T02:00:31.916Z,11.60
2023-03-21T02:03:11.556Z,11.20
2023-03-21T02:05:48.456Z,10.60
2023-03-21T02:08:17.634Z,11.20
2023-03-21T02:10:50.523Z,11.70
2023-03-21T02:13:20.251Z,9.70
2023-03-21T02:15:55.840Z,14.20
2023-03-21T02:18:39.326Z,9.90
2023-03-21T02:21:07.980Z,11.60
2023-03-21T02:23:56.909Z,10.70
2023-03-21T02:26:36.151Z,10.40
2023-03-21T02:29:39.053Z,10.10
2023-03-21T02:32:36.882Z,10.20
2023-03-21T02:35:24.850Z,8.60
2023-03-21T02:38:00.637Z,9.60
2023-03-21T02:40:32.996Z,10.30
2023-03-21T02:43:20.810Z,10.50
2023-03-21T02:45:54.610Z,8.80
2023-03-21T02:48:35.357Z,8.80
2023-03-21T02:51:16.058Z,8.60
2023-03-21T02:53:50.590Z,9.90
2023-03-21T02:56:23.561Z,9.40
2023-03-21T02:58:52.492Z,9.70
2023-03-21T03:01:21.612Z,11.60
2023-03-21T03:03:50.294Z,9.30
2023-03-21T03:06:20.828Z,8.50
2023-03-21T03:09:07.394Z,8.40
2023-03-21T03:11:43.464Z,10.00
2023-03-21T03:14:56.390Z,10.50
2023-03-21T03:17:28.459Z,8.10
2023-03-21T03:20:07.107Z,10.10
2023-03-21T03:22:51.135Z,9.30
2023-03-21T03:25:39.516Z,8.80
2023-03-21T03:28:13.466Z,9.50
2023-03-21T03:30:54.037Z,9.10
2023-03-21T03:33:30.023Z,10.00
2023-03-21T03:36:05.618Z,8.70
2023-03-21T03:38:36.877Z,10.70
2023-03-21T03:41:10.547Z,10.30
2023-03-21T03:43:51.082Z,9.10
2023-03-21T03:46:25.479Z,9.30
2023-03-21T03:49:00.292Z,9.90
2023-03-21T03:51:31.663Z,9.00
2023-03-21T03:54:09.336Z,12.40
2023-03-21T03:56:39.339Z,11.90
2023-03-21T03:59:08.098Z,10.30
2023-03-21T04:01:37.559Z,11.10
2023-03-21T04:04:13.229Z,11.30
2023-03-21T04:06:51.738Z,11.90
2023-03-21T04:09:25.100Z,8.40
2023-03-21T04:12:00.482Z,12.40
2023-03-21T04:14:42.015Z,10.60
2023-03-21T04:17:12.957Z,12.40
2023-03-21T04:19:41.829Z,11.40
2023-03-21T04:22:10.905Z,17.90
2023-03-21T04:24:40.170Z,15.70
2023-03-21T04:27:08.929Z,15.20
2023-03-21T04:29:37.639Z,17.70
2023-03-21T04:32:19.776Z,17.70
2023-03-21T04:34:50.176Z,13.80
2023-03-21T04:37:19.392Z,20.60
2023-03-21T04:39:48.277Z,20.10
2023-03-21T04:42:20.670Z,14.70
2023-03-21T04:44:49.584Z,16.60
2023-03-21T04:47:20.371Z,12.20
2023-03-21T04:49:49.133Z,12.80
2023-03-21T04:52:17.891Z,14.40
2023-03-21T04:54:46.806Z,14.90
2023-03-21T04:57:15.595Z,12.00
2023-03-21T04:59:44.373Z,11.70
2023-03-21T05:02:13.767Z,9.80
2023-03-21T05:04:42.573Z,9.20
2023-03-21T05:07:11.707Z,11.20
2023-03-21T05:09:40.415Z,13.40
2023-03-21T05:12:09.086Z,9.30
2023-03-21T05:14:37.771Z,10.30
2023-03-21T05:17:06.537Z,11.50
2023-03-21T05:19:35.840Z,9.90
2023-03-21T05:22:05.859Z,10.80
2023-03-21T05:24:34.911Z,10.70
2023-03-21T05:27:03.736Z,12.20
2023-03-21T05:29:33.256Z,11.90
2023-03-21T05:32:02.476Z,11.90
2023-03-21T05:34:32.167Z,13.20
2023-03-21T05:37:00.999Z,12.20
2023-03-21T05:39:29.703Z,12.70
2023-03-21T05:41:58.386Z,18.60
2023-03-21T05:44:27.225Z,16.70
2023-03-21T05:46:56.381Z,12.80
2023-03-21T05:49:26.657Z,10.80
2023-03-21T05:51:55.351Z,13.50
2023-03-21T05:54:24.319Z,10.60
2023-03-21T05:56:53.507Z,12.00
2023-03-21T05:59:22.530Z,12.70
2023-03-21T06:01:51.188Z,11.60
2023-03-21T06:04:19.871Z,11.80
2023-03-21T06:06:48.643Z,14.40
2023-03-21T06:09:17.438Z,11.10
2023-03-21T06:11:50.911Z,9.20
2023-03-21T06:14:20.349Z,9.90
2023-03-21T06:16:49.085Z,11.10
2023-03-21T06:19:17.773Z,10.00
2023-03-21T06:21:47.067Z,9.80
2023-03-21T06:24:15.827Z,10.00
2023-03-21T06:26:45.405Z,9.80
2023-03-21T06:29:14.176Z,7.70
2023-03-21T06:31:43.407Z,8.60
2023-03-21T06:34:12.322Z,11.40
2023-03-21T06:36:41.192Z,11.30
2023-03-21T06:39:10.614Z,12.50
2023-03-21T06:41:39.289Z,10.90
2023-03-21T06:44:08.009Z,10.90
2023-03-21T06:46:36.806Z,11.70
2023-03-21T06:49:05.582Z,11.20
2023-03-21T06:51:34.231Z,8.70
2023-03-21T06:54:03.045Z,12.80
2023-03-21T06:56:31.752Z,8.80
2023-03-21T06:59:00.601Z,9.20
2023-03-21T07:01:30.728Z,16.40
2023-03-21T07:03:59.660Z,10.20
2023-03-21T07:06:28.547Z,10.00
2023-03-21T07:08:57.304Z,8.60
2023-03-21T07:11:26.050Z,11.80
2023-03-21T07:13:54.950Z,11.50
2023-03-21T07:16:24.987Z,9.80
2023-03-21T07:18:53.760Z,7.70
2023-03-21T07:21:26.551Z,6.40
2023-03-21T07:23:55.413Z,7.20
2023-03-21T07:26:24.148Z,7.00
2023-03-21T07:28:52.930Z,5.60
2023-03-21T07:31:21.754Z,9.80
2023-03-21T07:33:50.398Z,8.30
2023-03-21T07:36:19.379Z,7.60
2023-03-21T07:38:48.162Z,6.80
2023-03-21T07:43:50.629Z,7.10
2023-03-21T07:46:19.327Z,6.30
2023-03-21T07:48:48.357Z,6.00
2023-03-21T07:51:17.060Z,4.40
2023-03-21T07:53:48.682Z,7.30
2023-03-21T07:56:17.525Z,5.90
2023-03-21T07:58:46.217Z,4.20
2023-03-21T08:01:14.909Z,6.00
2023-03-21T08:03:44.238Z,5.50
2023-03-21T08:06:13.058Z,7.20
2023-03-21T08:08:41.816Z,5.20
2023-03-21T08:11:11.136Z,6.60
2023-03-21T08:13:40.018Z,5.20
2023-03-21T08:16:08.956Z,7.10
2023-03-21T08:18:37.711Z,5.20
2023-03-21T08:21:08.854Z,5.70
2023-03-21T08:23:38.496Z,5.10
2023-03-21T08:26:07.761Z,6.50
2023-03-21T08:28:36.832Z,4.90
2023-03-21T08:31:09.433Z,8.90
2023-03-21T08:33:38.570Z,6.60
2023-03-21T08:36:07.660Z,8.90
2023-03-21T08:38:37.048Z,4.50
2023-03-21T08:41:06.076Z,4.10
2023-03-21T08:43:35.148Z,5.70
2023-03-21T08:46:04.321Z,3.40
2023-03-21T08:48:33.781Z,4.90
2023-03-21T08:51:02.481Z,3.30
2023-03-21T08:53:31.538Z,5.00
2023-03-21T08:56:00.239Z,5.20
2023-03-21T08:58:29.068Z,4.30
2023-03-21T09:00:57.775Z,3.50
2023-03-21T09:03:27.439Z,3.70
2023-03-21T09:05:56.793Z,2.90
2023-03-21T09:08:25.515Z,2.40
2023-03-21T09:10:54.948Z,3.60
2023-03-21T09:13:24.538Z,2.20
2023-03-21T09:15:54.714Z,2.30
2023-03-21T09:18:38.640Z,3.40
2023-03-21T09:21:12.747Z,2.00
2023-03-21T09:23:41.915Z,3.10
2023-03-21T09:26:10.781Z,3.20
2023-03-21T09:28:40.605Z,1.70
2023-03-21T09:31:12.937Z,1.70
2023-03-21T09:33:42.447Z,2.20
2023-03-21T09:36:14.184Z,2.40
2023-03-21T09:38:45.671Z,3.30
2023-03-21T09:41:18.114Z,4.00
2023-03-21T09:43:59.290Z,3.60
2023-03-21T09:46:37.112Z,3.20
2023-03-21T09:49:17.738Z,4.60
2023-03-21T09:51:49.309Z,3.20
2023-03-21T09:54:24.652Z,3.60
2023-03-21T09:56:58.851Z,2.70
2023-03-21T09:59:40.357Z,2.60
2023-03-21T10:02:38.726Z,2.30
2023-03-21T10:05:28.359Z,2.50
2023-03-21T10:07:57.147Z,3.20
2023-03-21T10:10:28.923Z,2.30
2023-03-21T10:12:57.710Z,5.50
2023-03-21T10:15:27.417Z,5.10
2023-03-21T10:17:58.290Z,4.80
2023-03-21T10:20:34.413Z,2.50
2023-03-21T10:23:07.966Z,1.80
2023-03-21T10:25:41.479Z,1.90
2023-03-21T10:28:15.693Z,2.00
2023-03-21T10:30:50.721Z,2.30
2023-03-21T10:33:32.575Z,1.80
2023-03-21T10:36:11.722Z,2.30
2023-03-21T10:38:44.208Z,2.00
2023-03-21T10:41:13.003Z,3.10
2023-03-21T10:43:45.112Z,1.80
2023-03-21T10:46:17.858Z,2.60
2023-03-21T10:48:52.422Z,2.80
2023-03-21T10:51:22.863Z,3.60
2023-03-21T10:54:11.791Z,1.50
2023-03-21T10:56:44.057Z,1.80
2023-03-21T10:59:19.499Z,2.00
2023-03-21T11:01:51.584Z,1.80
2023-03-21T11:04:22.978Z,2.40
2023-03-21T11:06:59.796Z,2.50
2023-03-21T11:09:46.893Z,2.90
2023-03-21T11:12:17.155Z,4.00
2023-03-21T11:14:51.038Z,3.90
2023-03-21T11:17:21.214Z,2.20
2023-03-21T11:19:51.928Z,3.40
2023-03-21T11:22:22.289Z,2.20
2023-03-21T11:24:53.229Z,4.30
2023-03-21T11:27:21.971Z,4.00
2023-03-21T11:29:51.619Z,1.70
2023-03-21T11:32:21.751Z,1.30
2023-03-21T11:34:53.251Z,1.90
2023-03-21T11:37:38.089Z,2.60
2023-03-21T11:40:28.041Z,4.60
2023-03-21T11:43:01.134Z,2.40
2023-03-21T11:45:34.266Z,2.10
2023-03-21T11:48:12.451Z,1.90
2023-03-21T11:50:47.158Z,1.80
2023-03-21T11:53:15.976Z,2.40
2023-03-21T11:56:09.412Z,3.00
2023-03-21T11:58:45.218Z,5.10
2023-03-21T12:01:26.473Z,3.70
2023-03-21T12:04:15.051Z,2.40
2023-03-21T12:06:47.734Z,2.90
2023-03-21T12:09:17.602Z,4.10
2023-03-21T12:12:02.216Z,3.30
2023-03-21T12:14:57.345Z,3.10
2023-03-21T12:17:31.984Z,5.00
2023-03-21T12:20:00.642Z,2.40
2023-03-21T12:22:43.698Z,3.70
2023-03-21T12:25:12.549Z,3.10
2023-03-21T12:27:55.282Z,3.90
2023-03-21T12:30:36.238Z,2.20
2023-03-21T12:33:14.420Z,2.50
2023-03-21T12:35:55.476Z,2.30
2023-03-21T12:38:28.409Z,2.40
2023-03-21T12:41:15.935Z,3.30
2023-03-21T12:43:48.595Z,2.50
2023-03-21T12:48:48.231Z,3.90
2023-03-21T12:51:19.129Z,3.80
2023-03-21T12:54:02.347Z,3.70
2023-03-21T12:56:50.315Z,3.90
2023-03-21T12:59:39.380Z,2.90
2023-03-21T13:02:15.784Z,4.10
2023-03-21T13:04:49.686Z,1.60
2023-03-21T13:07:20.492Z,3.10
2023-03-21T13:09:49.325Z,2.20
2023-03-21T13:12:36.837Z,2.20
2023-03-21T13:15:24.132Z,3.90
2023-03-21T13:18:01.126Z,2.00
2023-03-21T13:20:39.857Z,2.00
2023-03-21T13:23:08.878Z,3.80
2023-03-21T13:25:48.083Z,2.50
2023-03-21T13:28:23.188Z,2.10
2023-03-21T13:30:52.161Z,1.60
2023-03-21T13:33:24.040Z,1.30
2023-03-21T13:36:00.979Z,2.10
2023-03-21T13:38:30.613Z,1.60
2023-03-21T13:40:59.347Z,1.20
2023-03-21T13:43:35.890Z,1.30
2023-03-21T13:46:09.177Z,1.10
2023-03-21T13:48:58.485Z,0.80
2023-03-21T13:51:37.048Z,1.00
2023-03-21T13:54:08.919Z,2.80
2023-03-21T13:56:46.660Z,1.60
2023-03-21T13:59:18.448Z,2.80
2023-03-21T14:02:00.901Z,1.10
2023-03-21T14:04:41.998Z,1.30
2023-03-21T14:07:14.762Z,1.30
2023-03-21T14:09:48.145Z,1.80
2023-03-21T14:12:18.640Z,2.30
2023-03-21T14:14:50.737Z,1.40
2023-03-21T14:17:26.312Z,2.00
2023-03-21T14:19:56.409Z,1.30
2023-03-21T14:22:25.103Z,4.20
2023-03-21T14:24:58.673Z,1.60
2023-03-21T14:27:31.658Z,1.60
2023-03-21T14:30:01.391Z,1.20
2023-03-21T14:32:30.827Z,1.40
2023-03-21T14:35:00.666Z,1.50
2023-03-21T14:37:31.084Z,2.40
2023-03-21T14:40:09.077Z,1.60
2023-03-21T14:42:38.447Z,1.20
2023-03-21T14:45:27.472Z,1.20
2023-03-21T14:48:00.771Z,1.20
2023-03-21T14:50:48.329Z,1.90
2023-03-21T14:53:19.974Z,2.20
2023-03-21T14:55:57.721Z,0.90
2023-03-21T14:58:26.785Z,1.90
2023-03-21T15:00:57.264Z,1.50
2023-03-21T15:03:28.207Z,1.30
2023-03-21T15:05:57.637Z,1.80
2023-03-21T15:08:27.564Z,1.40
2023-03-21T15:11:06.356Z,1.50
2023-03-21T15:13:41.780Z,1.50
2023-03-21T15:16:11.314Z,1.00
2023-03-21T15:18:40.930Z,1.50
2023-03-21T15:21:12.796Z,2.60
2023-03-21T15:23:44.765Z,3.50
2023-03-21T15:26:17.003Z,6.90
2023-03-21T15:28:47.516Z,1.40
2023-03-21T15:31:18.064Z,1.50
2023-03-21T15:33:50.701Z,2.10
2023-03-21T15:36:25.486Z,2.00
2023-03-21T15:38:55.392Z,1.80
2023-03-21T15:41:24.025Z,2.00
2023-03-21T15:44:02.310Z,2.80
2023-03-21T15:46:43.182Z,2.50
2023-03-21T15:49:15.006Z,3.90
2023-03-21T15:51:46.774Z,5.80
2023-03-21T15:54:17.717Z,5.00
2023-03-21T15:56:46.521Z,4.20
2023-03-21T15:59:19.632Z,5.30
2023-03-21T16:01:48.966Z,5.40
2023-03-21T16:04:18.683Z,3.80
2023-03-21T16:06:52.581Z,2.30
2023-03-21T16:09:24.419Z,2.90
2023-03-21T16:11:55.874Z,4.50
2023-03-21T16:14:29.699Z,6.50
2023-03-21T16:16:59.178Z,3.60
2023-03-21T16:19:29.680Z,2.80
2023-03-21T16:21:58.348Z,3.50
2023-03-21T16:24:27.230Z,5.40
2023-03-21T16:26:56.649Z,4.00
2023-03-21T16:29:25.328Z,7.50
2023-03-21T16:31:54.063Z,3.30
2023-03-21T16:34:23.484Z,3.60
2023-03-21T16:36:52.196Z,4.00
2023-03-21T16:39:22.515Z,4.80
2023-03-21T16:41:51.569Z,3.70
2023-03-21T16:44:20.802Z,2.90
2023-03-21T16:46:49.629Z,4.10
2023-03-21T16:49:25.770Z,3.80
2023-03-21T16:51:55.805Z,3.10
2023-03-21T16:54:25.038Z,3.20
2023-03-21T16:56:54.981Z,4.00
2023-03-21T16:59:24.342Z,3.10
2023-03-21T17:01:53.062Z,4.20
2023-03-21T17:04:22.621Z,3.50
2023-03-21T17:06:52.687Z,4.60
2023-03-21T17:09:22.735Z,4.20
2023-03-21T17:11:51.487Z,3.40
2023-03-21T17:14:21.602Z,5.50
2023-03-21T17:16:52.861Z,3.30
2023-03-21T17:19:26.381Z,4.00
2023-03-21T17:21:55.332Z,4.50
2023-03-21T17:24:26.245Z,2.60
2023-03-21T17:26:55.070Z,6.40
2023-03-21T17:29:23.736Z,4.70
2023-03-21T17:31:52.496Z,4.10
2023-03-21T17:34:22.601Z,7.10
2023-03-21T17:36:57.415Z,6.70
2023-03-21T17:39:28.638Z,5.10
2023-03-21T17:41:57.502Z,4.60
2023-03-21T17:44:26.266Z,3.80
2023-03-21T17:46:54.979Z,8.30
2023-03-21T17:49:24.167Z,5.20
2023-03-21T17:51:53.479Z,5.70
2023-03-21T17:54:22.192Z,5.70
2023-03-21T17:56:51.726Z,8.20
2023-03-21T17:59:20.512Z,8.60
2023-03-21T18:01:49.253Z,6.40
2023-03-21T18:04:18.022Z,7.90
2023-03-21T18:06:47.145Z,11.40
2023-03-21T18:09:20.257Z,8.00
2023-03-21T18:11:50.112Z,11.60
2023-03-21T18:14:27.883Z,11.40
2023-03-21T18:16:57.561Z,14.00
2023-03-21T18:19:27.262Z,11.70
2023-03-21T18:21:56.167Z,13.40
2023-03-21T18:24:25.559Z,14.20
2023-03-21T18:26:54.560Z,14.60
2023-03-21T18:32:12.520Z,13.20
2023-03-21T18:34:44.152Z,16.00
2023-03-21T18:37:14.282Z,16.90
2023-03-21T18:39:45.198Z,15.20
2023-03-21T18:42:18.018Z,15.40
2023-03-21T18:44:49.370Z,13.80
2023-03-21T18:47:18.351Z,15.60
2023-03-21T18:50:14.160Z,16.30
2023-03-21T18:52:36.273Z,14.80
2023-03-21T18:55:05.909Z,12.50
2023-03-21T18:57:37.776Z,11.30
2023-03-21T19:00:13.023Z,18.40
2023-03-21T19:02:47.708Z,12.70
2023-03-21T19:05:17.843Z,14.90
2023-03-21T19:07:48.096Z,16.30
2023-03-21T19:10:19.873Z,14.20
2023-03-21T19:12:50.168Z,13.30
2023-03-21T19:15:21.436Z,11.30
2023-03-21T19:18:37.227Z,17.30
2023-03-21T19:20:44.541Z,13.90
2023-03-21T19:23:36.049Z,27.50
2023-03-21T19:26:12.365Z,25.50
2023-03-21T19:28:41.520Z,18.90
2023-03-21T19:31:10.255Z,11.80
2023-03-21T19:33:39.335Z,15.70
2023-03-21T19:36:17.850Z,16.10
2023-03-21T19:38:51.096Z,20.40
2023-03-21T19:41:20.406Z,22.00
2023-03-21T19:43:55.029Z,17.70
2023-03-21T19:46:26.443Z,23.00
2023-03-21T19:48:56.591Z,25.10
2023-03-21T19:51:29.792Z,20.80
2023-03-21T19:53:59.777Z,17.30
2023-03-21T19:56:28.769Z,20.80
2023-03-21T19:58:57.626Z,25.30
2023-03-21T20:01:26.723Z,29.10
2023-03-21T20:03:55.505Z,33.40
2023-03-21T20:06:24.388Z,41.10
2023-03-21T20:11:42.864Z,39.30
2023-03-21T20:14:11.614Z,33.70
2023-03-21T20:16:43.626Z,34.00
2023-03-21T20:19:13.426Z,37.80
2023-03-21T20:21:50.885Z,30.00
2023-03-21T20:24:23.501Z,28.50
2023-03-21T20:26:53.814Z,24.90
2023-03-21T20:32:11.328Z,25.00
2023-03-21T20:34:40.321Z,22.80
2023-03-21T20:37:11.420Z,27.70
2023-03-21T20:39:40.236Z,24.70
2023-03-21T20:42:09.273Z,25.50
2023-03-21T20:44:57.745Z,27.10
2023-03-21T20:47:26.910Z,33.80
2023-03-21T20:49:56.957Z,31.50
2023-03-21T20:52:57.543Z,34.20
2023-03-21T20:55:15.879Z,34.20
2023-03-21T20:57:45.237Z,32.50
2023-03-21T21:00:18.026Z,33.50
2023-03-21T21:02:48.200Z,31.90
2023-03-21T21:05:28.693Z,34.00
2023-03-21T21:07:59.161Z,33.70
2023-03-21T21:10:28.824Z,40.00
2023-03-21T21:12:57.874Z,43.60
2023-03-21T21:15:27.218Z,39.30
2023-03-21T21:18:06.232Z,38.30
2023-03-21T21:20:37.169Z,39.10
2023-03-21T21:23:06.162Z,37.90
2023-03-21T21:25:35.310Z,34.90
2023-03-21T21:28:08.995Z,34.50
2023-03-21T21:30:38.995Z,34.50
2023-03-21T21:33:07.885Z,34.70
2023-03-21T21:35:37.002Z,40.40
2023-03-21T21:38:06.457Z,36.90
2023-03-21T21:40:35.205Z,34.40
2023-03-21T21:43:04.701Z,37.40
2023-03-21T21:45:33.537Z,37.90
2023-03-21T21:48:02.327Z,44.80
2023-03-21T21:50:31.211Z,31.10
2023-03-21T21:53:03.711Z,35.40
2023-03-21T21:55:33.245Z,32.30
2023-03-21T21:58:02.603Z,31.40
2023-03-21T22:00:32.384Z,32.60
2023-03-21T22:03:02.014Z,29.00
2023-03-21T22:05:30.917Z,29.70
2023-03-21T22:07:59.739Z,28.60
2023-03-21T22:10:28.488Z,27.70
2023-03-21T22:12:57.443Z,26.10
2023-03-21T22:15:26.708Z,23.90
2023-03-21T22:17:55.494Z,23.00
2023-03-21T22:20:24.226Z,20.30
2023-03-21T22:22:53.013Z,24.70
2023-03-21T22:25:21.701Z,27.30
2023-03-21T22:27:50.579Z,30.40
2023-03-21T22:30:19.429Z,25.50
2023-03-21T22:33:02.562Z,26.80
2023-03-21T22:35:37.649Z,22.20
2023-03-21T22:38:06.510Z,27.70
2023-03-21T22:40:35.393Z,31.20
2023-03-21T22:43:04.105Z,30.00
2023-03-21T22:45:34.854Z,30.60
2023-03-21T22:48:04.233Z,26.80
2023-03-21T22:50:32.928Z,25.50
2023-03-21T22:53:01.667Z,25.20
2023-03-21T22:55:30.532Z,25.80
2023-03-21T22:57:59.464Z,27.70
2023-03-21T23:00:28.148Z,25.50
2023-03-21T23:02:57.271Z,25.10
2023-03-21T23:05:26.656Z,27.00
2023-03-21T23:07:55.397Z,26.40
2023-03-21T23:10:24.213Z,23.30
2023-03-21T23:12:53.044Z,26.40
2023-03-21T23:15:21.723Z,21.90
2023-03-21T23:17:50.442Z,28.60
2023-03-21T23:20:19.160Z,28.50
2023-03-21T23:22:47.985Z,24.60
2023-03-21T23:25:16.995Z,22.10
2023-03-21T23:27:45.801Z,21.40
2023-03-21T23:30:14.621Z,27.50
2023-03-21T23:32:43.355Z,27.90
2023-03-21T23:35:12.062Z,26.30
2023-03-21T23:37:42.463Z,25.00
2023-03-21T23:40:12.608Z,21.30
2023-03-21T23:42:41.405Z,23.90
2023-03-21T23:45:10.641Z,25.00
2023-03-21T23:47:39.385Z,22.20
2023-03-21T23:50:09.814Z,25.70
2023-03-21T23:52:38.818Z,23.10
2023-03-21T23:55:08.185Z,25.20
2023-03-21T23:57:38.316Z,23.60
